KCNM/CNM METAR and TAF weather

Enter ICAO airport designator
Station Type Date Time Source
KCNM METAR 2023/02/05 14:53 UTC NOAA

KCNM 051453Z AUTO 28004KT 10SM CLR 04/M02 A3019 RMK AO2 SLP212 T00391017 53007


Station Type Date Time Source
KCNM Decoded METAR 2023/02/05 14:53 UTC NOAA

CARLSBAD CAVERN CITY, NM, United States (KCNM) 32-20N 104-16W 985M
Feb 05, 2023 - 09:53 AM EST / 2023.02.05 1453 UTC
Wind: from the W (280 degrees) at 5 MPH (4 KT):0
Visibility: 10 mile(s):0
Sky conditions: clear
Temperature: 39.0 F (3.9 C)
Dew Point: 28.9 F (-1.7 C)
Relative Humidity: 66%
Pressure (altimeter): 30.19 in. Hg (1022 hPa)
Pressure tendency: 0.02 inches (0.7 hPa) higher than three hours ago
ob: KCNM 051453Z AUTO 28004KT 10SM CLR 04/M02 A3019 RMK AO2 SLP212 T00391017 53007
cycle: 15

Station Type Date Time Source
KCNM TAF 2023/02/05 12:22 UTC NOAA

TAF KCNM 051120Z 0512/0612 VRB05KT P6SM FEW250
FM051800 20011KT P6SM SKC

Example: see airport list